createdAt,value
2023-08-06T00:00:29.906Z,100190.16
2023-08-06T00:02:56.473Z,100190.78
2023-08-06T00:05:23.090Z,100183.09
2023-08-06T00:07:51.967Z,100180.22
2023-08-06T00:10:18.562Z,100185.97
2023-08-06T00:12:45.169Z,100179.78
2023-08-06T00:15:12.152Z,100181.63
2023-08-06T00:17:38.800Z,100171.06
2023-08-06T00:20:07.049Z,100169.19
2023-08-06T00:22:34.771Z,100166.50
2023-08-06T00:25:01.346Z,100167.53
2023-08-06T00:27:27.796Z,100163.81
2023-08-06T00:29:54.262Z,100170.41
2023-08-06T00:32:20.994Z,100165.00
2023-08-06T00:34:47.540Z,100157.53
2023-08-06T00:37:14.374Z,100165.63
2023-08-06T00:39:40.769Z,100158.34
2023-08-06T00:42:07.134Z,100153.81
2023-08-06T00:44:33.514Z,100145.94
2023-08-06T00:47:02.265Z,100158.34
2023-08-06T00:49:28.926Z,100160.25
2023-08-06T00:51:57.719Z,100154.19
2023-08-06T00:54:25.868Z,100152.94
2023-08-06T00:56:52.379Z,100149.56
2023-08-06T00:59:18.825Z,100139.03
2023-08-06T01:01:46.322Z,100140.22
2023-08-06T01:04:13.586Z,100150.38
2023-08-06T01:06:48.381Z,100139.59
2023-08-06T01:09:43.735Z,100132.56
2023-08-06T01:12:24.744Z,100127.16
2023-08-06T01:15:25.533Z,100132.56
2023-08-06T01:17:53.268Z,100122.44
2023-08-06T01:20:19.789Z,100125.97
2023-08-06T01:22:46.167Z,100124.91
2023-08-06T01:25:17.611Z,100122.88
2023-08-06T01:27:55.683Z,100130.56
2023-08-06T01:30:31.347Z,100127.03
2023-08-06T01:33:05.731Z,100122.47
2023-08-06T01:35:34.216Z,100116.25
2023-08-06T01:38:04.442Z,100116.06
2023-08-06T01:40:31.286Z,100121.47
2023-08-06T01:42:57.767Z,100121.47
2023-08-06T01:45:24.168Z,100117.09
2023-08-06T01:47:50.968Z,100114.81
2023-08-06T01:50:17.378Z,100107.56
2023-08-06T01:52:45.310Z,100104.03
2023-08-06T01:55:11.685Z,100106.50
2023-08-06T01:57:38.082Z,100103.81
2023-08-06T02:00:04.821Z,100103.81
2023-08-06T02:02:39.583Z,100105.72
2023-08-06T02:05:06.561Z,100100.50
2023-08-06T02:07:33.035Z,100098.66
2023-08-06T02:09:59.418Z,100098.00
2023-08-06T02:12:25.790Z,100101.53
2023-08-06T02:14:52.158Z,100103.19
2023-08-06T02:17:18.585Z,100106.06
2023-08-06T02:19:45.008Z,100096.16
2023-08-06T02:22:11.394Z,100101.13
2023-08-06T02:24:37.829Z,100094.09
2023-08-06T02:27:04.490Z,100090.59
2023-08-06T02:29:30.963Z,100092.25
2023-08-06T02:31:57.470Z,100096.78
2023-08-06T02:34:23.897Z,100087.66
2023-08-06T02:36:50.282Z,100083.78
2023-08-06T02:39:16.656Z,100086.25
2023-08-06T02:41:43.020Z,100083.78
2023-08-06T02:44:09.437Z,100077.75
2023-08-06T02:46:35.823Z,100069.66
2023-08-06T02:49:02.255Z,100069.66
2023-08-06T02:51:28.742Z,100072.75
2023-08-06T02:53:55.194Z,100072.94
2023-08-06T02:56:22.361Z,100072.94
2023-08-06T02:59:12.240Z,100065.69
2023-08-06T03:01:48.159Z,100062.19
2023-08-06T03:04:21.168Z,100063.00
2023-08-06T03:06:52.398Z,100047.91
2023-08-06T03:09:21.722Z,100044.00
2023-08-06T03:11:49.545Z,100046.50
2023-08-06T03:14:16.166Z,100045.66
2023-08-06T03:16:44.037Z,100042.97
2023-08-06T03:19:12.871Z,100046.88
2023-08-06T03:21:39.276Z,100048.09
2023-08-06T03:24:05.989Z,100040.44
2023-08-06T03:26:34.460Z,100044.97
2023-08-06T03:29:02.142Z,100038.94
2023-08-06T03:31:31.257Z,100042.66
2023-08-06T03:33:58.594Z,100044.53
2023-08-06T03:36:27.346Z,100044.72
2023-08-06T03:38:54.840Z,100045.31
2023-08-06T03:41:21.414Z,100035.13
2023-08-06T03:43:48.088Z,100045.72
2023-08-06T03:46:20.996Z,100041.34
2023-08-06T03:48:47.459Z,100039.66
2023-08-06T03:51:13.929Z,100041.53
2023-08-06T03:53:43.109Z,100041.09
2023-08-06T03:56:10.016Z,100042.75
2023-08-06T03:58:36.447Z,100040.25
2023-08-06T04:01:03.997Z,100034.44
2023-08-06T04:03:43.736Z,100030.06
2023-08-06T04:06:10.310Z,100035.28
2023-08-06T04:08:37.236Z,100037.13
2023-08-06T04:11:04.607Z,100024.31
2023-08-06T04:13:31.017Z,100028.22
2023-08-06T04:16:02.650Z,100034.63
2023-08-06T04:18:29.308Z,100032.97
2023-08-06T04:20:58.150Z,100039.38
2023-08-06T04:23:25.777Z,100038.34
2023-08-06T04:25:58.745Z,100032.97
2023-08-06T04:28:28.324Z,100026.38
2023-08-06T04:30:55.043Z,100036.09
2023-08-06T04:33:22.554Z,100032.41
2023-08-06T04:35:55.536Z,100034.25
2023-08-06T04:38:24.937Z,100029.50
2023-08-06T04:40:51.413Z,100035.88
2023-08-06T04:43:17.907Z,100030.91
2023-08-06T04:45:48.520Z,100030.06
2023-08-06T04:48:15.170Z,100035.44
2023-08-06T04:50:49.223Z,100034.44
2023-08-06T04:53:16.809Z,100033.41
2023-08-06T04:55:43.594Z,100031.34
2023-08-06T04:58:11.229Z,100030.97
2023-08-06T05:00:37.756Z,100028.06
2023-08-06T05:03:04.253Z,100032.44
2023-08-06T05:05:30.657Z,100038.66
2023-08-06T05:07:58.224Z,100035.78
2023-08-06T05:10:28.019Z,100039.94
2023-08-06T05:12:54.659Z,100038.91
2023-08-06T05:15:21.189Z,100038.06
2023-08-06T05:17:47.584Z,100042.78
2023-08-06T05:20:14.099Z,100042.78
2023-08-06T05:22:40.465Z,100051.69
2023-08-06T05:25:07.608Z,100049.00
2023-08-06T05:27:34.123Z,100057.75
2023-08-06T05:30:00.626Z,100061.06
2023-08-06T05:32:27.080Z,100059.19
2023-08-06T05:34:53.560Z,100061.50
2023-08-06T05:37:19.963Z,100072.91
2023-08-06T05:39:46.347Z,100060.91
2023-08-06T05:42:12.708Z,100066.09
2023-08-06T05:44:39.110Z,100067.56
2023-08-06T05:47:05.790Z,100069.47
2023-08-06T05:49:32.169Z,100070.75
2023-08-06T05:51:58.689Z,100068.50
2023-08-06T05:54:25.068Z,100071.84
2023-08-06T05:56:51.559Z,100067.72
2023-08-06T05:59:18.009Z,100076.84
2023-08-06T06:01:44.442Z,100076.06
2023-08-06T06:04:10.960Z,100078.19
2023-08-06T06:06:37.335Z,100082.97
2023-08-06T06:09:03.892Z,100080.53
2023-08-06T06:11:30.283Z,100079.94
2023-08-06T06:13:56.704Z,100085.75
2023-08-06T06:16:23.103Z,100084.94
2023-08-06T06:18:49.605Z,100093.28
2023-08-06T06:21:16.002Z,100085.44
2023-08-06T06:23:42.408Z,100090.25
2023-08-06T06:26:08.940Z,100088.81
2023-08-06T06:28:35.317Z,100082.22
2023-08-06T06:31:02.804Z,100084.94
2023-08-06T06:33:29.228Z,100081.63
2023-08-06T06:35:55.611Z,100083.53
2023-08-06T06:38:22.041Z,100082.72
2023-08-06T06:40:58.024Z,100085.03
2023-08-06T06:43:25.006Z,100090.19
2023-08-06T06:45:57.120Z,100091.66
2023-08-06T06:48:23.646Z,100087.53
2023-08-06T06:50:50.187Z,100090.84
2023-08-06T06:53:16.615Z,100090.44
2023-08-06T06:55:43.114Z,100073.03
2023-08-06T06:58:09.562Z,100080.94
2023-08-06T07:00:38.860Z,100085.72
2023-08-06T07:03:05.340Z,100086.09
2023-08-06T07:05:31.771Z,100080.28
2023-08-06T07:07:58.151Z,100079.25
2023-08-06T07:10:24.634Z,100089.41
2023-08-06T07:12:51.014Z,100083.41
2023-08-06T07:15:18.622Z,100086.50
2023-08-06T07:17:45.104Z,100086.50
2023-08-06T07:20:11.506Z,100087.97
2023-08-06T07:22:38.014Z,100087.13
2023-08-06T07:25:04.718Z,100088.16
2023-08-06T07:27:31.211Z,100089.81
2023-08-06T07:29:59.413Z,100089.81
2023-08-06T07:32:25.841Z,100088.56
2023-08-06T07:34:57.526Z,100097.53
2023-08-06T07:37:24.185Z,100102.28
2023-08-06T07:39:50.611Z,100104.38
2023-08-06T07:42:17.073Z,100100.22
2023-08-06T07:44:43.450Z,100097.78
2023-08-06T07:47:09.929Z,100095.88
2023-08-06T07:49:36.289Z,100105.25
2023-08-06T07:52:03.689Z,100105.09
2023-08-06T07:54:30.595Z,100108.56
2023-08-06T07:56:56.986Z,100109.84
2023-08-06T07:59:23.393Z,100113.22
2023-08-06T08:01:49.792Z,100115.72
2023-08-06T08:04:16.158Z,100108.41
2023-08-06T08:06:42.901Z,100109.28
2023-08-06T08:09:09.272Z,100116.94
2023-08-06T08:11:35.772Z,100114.06
2023-08-06T08:14:02.196Z,100111.97
2023-08-06T08:16:28.670Z,100108.66
2023-08-06T08:18:55.156Z,100118.63
2023-08-06T08:21:21.566Z,100113.63
2023-08-06T08:23:48.274Z,100119.25
2023-08-06T08:26:14.697Z,100114.88
2023-08-06T08:28:41.080Z,100124.22
2023-08-06T08:31:12.214Z,100121.94
2023-08-06T08:33:39.269Z,100121.31
2023-08-06T08:36:05.793Z,100121.94
2023-08-06T08:38:32.664Z,100114.03
2023-08-06T08:40:59.189Z,100123.16
2023-08-06T08:43:25.604Z,100120.06
2023-08-06T08:45:52.949Z,100122.34
2023-08-06T08:48:20.560Z,100121.94
2023-08-06T08:50:49.580Z,100121.31
2023-08-06T08:53:17.898Z,100118.00
2023-08-06T08:55:48.533Z,100129.84
2023-08-06T08:58:15.779Z,100141.88
2023-08-06T09:00:43.375Z,100124.00
2023-08-06T09:03:10.672Z,100125.06
2023-08-06T09:05:41.797Z,100131.25
2023-08-06T09:08:11.446Z,100127.97
2023-08-06T09:10:39.779Z,100127.72
2023-08-06T09:13:07.380Z,100131.09
2023-08-06T09:15:34.630Z,100138.78
2023-08-06T09:18:01.066Z,100135.88
2023-08-06T09:20:27.592Z,100134.41
2023-08-06T09:22:54.526Z,100137.72
2023-08-06T09:25:27.225Z,100145.44
2023-08-06T09:27:53.587Z,100138.56
2023-08-06T09:30:33.523Z,100150.19
2023-08-06T09:33:00.661Z,100147.69
2023-08-06T09:35:31.644Z,100153.53
2023-08-06T09:38:11.511Z,100149.78
2023-08-06T09:40:39.269Z,100146.25
2023-08-06T09:43:06.818Z,100148.50
2023-08-06T09:45:37.568Z,100149.13
2023-08-06T09:48:05.604Z,100152.06
2023-08-06T09:50:33.854Z,100148.09
2023-08-06T09:53:05.551Z,100150.38
2023-08-06T09:55:33.049Z,100149.75
2023-08-06T09:58:00.090Z,100151.22
2023-08-06T10:00:27.537Z,100151.41
2023-08-06T10:02:56.966Z,100159.50
2023-08-06T10:05:24.649Z,100159.94
2023-08-06T10:07:52.047Z,100160.56
2023-08-06T10:10:20.656Z,100167.44
2023-08-06T10:12:53.048Z,100159.13
2023-08-06T10:15:26.383Z,100160.78
2023-08-06T10:17:57.147Z,100160.16
2023-08-06T10:20:24.196Z,100155.59
2023-08-06T10:23:04.046Z,100157.66
2023-08-06T10:25:35.361Z,100154.78
2023-08-06T10:28:09.312Z,100160.19
2023-08-06T10:30:43.170Z,100149.16
2023-08-06T10:33:09.631Z,100147.28
2023-08-06T10:35:51.190Z,100146.88
2023-08-06T10:38:19.828Z,100149.78
2023-08-06T10:41:03.092Z,100152.50
2023-08-06T10:43:44.368Z,100150.19
2023-08-06T10:46:12.260Z,100153.31
2023-08-06T10:48:40.671Z,100152.47
2023-08-06T10:51:12.369Z,100151.66
2023-08-06T10:53:42.235Z,100158.94
2023-08-06T10:56:15.727Z,100160.59
2023-08-06T10:58:43.064Z,100168.88
2023-08-06T11:01:10.325Z,100174.50
2023-08-06T11:03:37.215Z,100180.09
2023-08-06T11:06:04.049Z,100178.03
2023-08-06T11:08:35.563Z,100180.72
2023-08-06T11:11:13.965Z,100189.03
2023-08-06T11:13:50.805Z,100184.44
2023-08-06T11:16:25.639Z,100188.75
2023-08-06T11:18:53.716Z,100183.72
2023-08-06T11:21:22.176Z,100181.16
2023-08-06T11:23:49.265Z,100179.47
2023-08-06T11:26:20.953Z,100179.66
2023-08-06T11:28:47.353Z,100181.56
2023-08-06T11:31:31.890Z,100183.78
2023-08-06T11:33:58.306Z,100195.78
2023-08-06T11:36:35.123Z,100184.41
2023-08-06T11:39:01.973Z,100180.44
2023-08-06T11:41:31.953Z,100196.34
2023-08-06T11:43:59.365Z,100187.69
2023-08-06T11:46:27.039Z,100186.66
2023-08-06T11:48:57.561Z,100190.44
2023-08-06T11:51:27.187Z,100197.09
2023-08-06T11:53:57.727Z,100199.78
2023-08-06T11:56:26.381Z,100209.50
2023-08-06T11:58:53.128Z,100211.69
2023-08-06T12:01:19.675Z,100212.69
2023-08-06T12:03:46.080Z,100211.78
2023-08-06T12:06:12.524Z,100217.31
2023-08-06T12:08:39.521Z,100213.53
2023-08-06T12:11:06.018Z,100215.97
2023-08-06T12:13:32.459Z,100220.63
2023-08-06T12:15:58.922Z,100218.34
2023-08-06T12:18:25.370Z,100224.13
2023-08-06T12:20:51.921Z,100228.00
2023-08-06T12:23:18.774Z,100222.84
2023-08-06T12:25:45.803Z,100230.91
2023-08-06T12:28:13.345Z,100235.47
2023-08-06T12:30:42.815Z,100239.69
2023-08-06T12:33:10.600Z,100235.94
2023-08-06T12:35:37.054Z,100239.13
2023-08-06T12:38:03.885Z,100255.06
2023-08-06T12:40:37.627Z,100258.63
2023-08-06T12:43:04.314Z,100262.00
2023-08-06T12:45:30.848Z,100264.63
2023-08-06T12:47:57.319Z,100281.88
2023-08-06T12:50:23.844Z,100285.22
2023-08-06T12:52:50.259Z,100286.22
2023-08-06T12:55:16.646Z,100288.25
2023-08-06T12:57:57.456Z,100294.28
2023-08-06T13:00:25.590Z,100294.19
2023-08-06T13:02:52.083Z,100302.91
2023-08-06T13:05:18.707Z,100313.19
2023-08-06T13:07:45.327Z,100314.59
2023-08-06T13:10:11.753Z,100315.75
2023-08-06T13:12:38.258Z,100317.28
2023-08-06T13:15:05.209Z,100323.19
2023-08-06T13:17:31.715Z,100326.16
2023-08-06T13:19:58.674Z,100330.34
2023-08-06T13:22:25.051Z,100328.13
2023-08-06T13:24:51.429Z,100336.38
2023-08-06T13:27:17.817Z,100337.50
2023-08-06T13:29:44.321Z,100346.19
2023-08-06T13:32:10.779Z,100346.88
2023-08-06T13:34:37.174Z,100345.97
2023-08-06T13:37:03.718Z,100348.72
2023-08-06T13:39:30.144Z,100345.59
2023-08-06T13:41:56.544Z,100351.31
2023-08-06T13:44:22.991Z,100351.81
2023-08-06T13:46:49.370Z,100355.81
2023-08-06T13:49:15.754Z,100355.13
2023-08-06T13:51:42.130Z,100355.13
2023-08-06T13:54:08.598Z,100354.97
2023-08-06T13:56:36.032Z,100356.72
2023-08-06T13:59:02.588Z,100364.06
2023-08-06T14:01:42.910Z,100356.78
2023-08-06T14:04:14.442Z,100361.72
2023-08-06T14:06:40.858Z,100361.59
2023-08-06T14:09:07.339Z,100376.28
2023-08-06T14:11:33.769Z,100372.03
2023-08-06T14:14:01.938Z,100379.59
2023-08-06T14:16:30.752Z,100373.88
2023-08-06T14:18:57.169Z,100378.41
2023-08-06T14:21:23.555Z,100377.66
2023-08-06T14:23:49.981Z,100379.78
2023-08-06T14:26:16.454Z,100382.47
2023-08-06T14:28:43.084Z,100386.56
2023-08-06T14:31:09.542Z,100384.81
2023-08-06T14:33:35.928Z,100384.59
2023-08-06T14:36:02.928Z,100387.22
2023-08-06T14:38:29.340Z,100393.63
2023-08-06T14:40:55.748Z,100400.13
2023-08-06T14:43:22.250Z,100411.28
2023-08-06T14:45:48.744Z,100404.00
2023-08-06T14:48:15.114Z,100404.09
2023-08-06T14:50:42.205Z,100417.13
2023-08-06T14:53:09.315Z,100422.94
2023-08-06T14:55:35.806Z,100423.59
2023-08-06T14:58:02.749Z,100416.34
2023-08-06T15:00:29.586Z,100423.97
2023-08-06T15:02:56.093Z,100433.91
2023-08-06T15:05:22.584Z,100435.56
2023-08-06T15:07:49.015Z,100436.69
2023-08-06T15:10:26.487Z,100432.78
2023-08-06T15:12:54.648Z,100439.72
2023-08-06T15:15:21.469Z,100448.94
2023-08-06T15:17:47.896Z,100443.78
2023-08-06T15:20:14.574Z,100444.91
2023-08-06T15:22:41.146Z,100455.16
2023-08-06T15:25:07.997Z,100450.34
2023-08-06T15:27:35.969Z,100452.94
2023-08-06T15:30:03.928Z,100460.00
2023-08-06T15:32:30.325Z,100462.25
2023-08-06T15:34:56.743Z,100469.66
2023-08-06T15:37:23.469Z,100466.22
2023-08-06T15:39:49.856Z,100474.31
2023-08-06T15:42:16.670Z,100476.63
2023-08-06T15:44:43.253Z,100479.06
2023-08-06T15:47:09.810Z,100480.34
2023-08-06T15:49:36.775Z,100489.44
2023-08-06T15:52:03.426Z,100491.88
2023-08-06T15:54:29.824Z,100495.97
2023-08-06T15:56:56.503Z,100489.94
2023-08-06T15:59:33.453Z,100495.34
2023-08-06T16:02:03.394Z,100503.13
2023-08-06T16:04:31.421Z,100511.59
2023-08-06T16:06:58.793Z,100499.25
2023-08-06T16:09:25.444Z,100501.94
2023-08-06T16:11:52.842Z,100508.16
2023-08-06T16:14:19.776Z,100506.28
2023-08-06T16:16:47.353Z,100508.63
2023-08-06T16:19:13.906Z,100510.66
2023-08-06T16:21:40.284Z,100508.06
2023-08-06T16:24:08.426Z,100521.72
2023-08-06T16:26:34.875Z,100514.66
2023-08-06T16:29:01.323Z,100522.91
2023-08-06T16:31:27.931Z,100522.91
2023-08-06T16:33:54.513Z,100525.16
2023-08-06T16:36:21.041Z,100534.44
2023-08-06T16:38:47.792Z,100532.38
2023-08-06T16:41:14.279Z,100539.84
2023-08-06T16:43:40.905Z,100537.88
2023-08-06T16:46:07.395Z,100539.00
2023-08-06T16:48:35.045Z,100543.41
2023-08-06T16:51:01.938Z,100538.13
2023-08-06T16:53:28.850Z,100548.13
2023-08-06T16:55:58.360Z,100547.50
2023-08-06T16:58:25.974Z,100549.91
2023-08-06T17:00:53.596Z,100551.38
2023-08-06T17:03:21.115Z,100560.13
2023-08-06T17:05:47.863Z,100566.41
2023-08-06T17:08:14.349Z,100557.81
2023-08-06T17:10:40.849Z,100559.44
2023-08-06T17:13:18.384Z,100567.91
2023-08-06T17:15:47.650Z,100572.25
2023-08-06T17:18:17.254Z,100569.44
2023-08-06T17:20:44.337Z,100572.44
2023-08-06T17:23:10.793Z,100574.13
2023-08-06T17:25:37.233Z,100576.44
2023-08-06T17:28:06.790Z,100582.66
2023-08-06T17:30:33.233Z,100590.72
2023-08-06T17:32:59.661Z,100590.34
2023-08-06T17:35:26.151Z,100589.50
2023-08-06T17:37:54.227Z,100597.59
2023-08-06T17:40:20.725Z,100607.03
2023-08-06T17:42:47.094Z,100598.25
2023-08-06T17:45:13.562Z,100602.34
2023-08-06T17:47:42.049Z,100605.19
2023-08-06T17:50:09.379Z,100609.03
2023-08-06T17:52:35.917Z,100607.72
2023-08-06T17:55:04.847Z,100618.03
2023-08-06T17:57:31.423Z,100615.06
2023-08-06T17:59:57.884Z,100621.78
2023-08-06T18:02:27.030Z,100621.28
2023-08-06T18:04:53.651Z,100622.47
2023-08-06T18:07:20.159Z,100631.09
2023-08-06T18:09:46.578Z,100641.94
2023-08-06T18:12:12.951Z,100648.38
2023-08-06T18:14:40.364Z,100649.28
2023-08-06T18:17:06.866Z,100658.06
2023-08-06T18:19:33.286Z,100660.09
2023-08-06T18:22:01.395Z,100660.25
2023-08-06T18:24:27.878Z,100661.28
2023-08-06T18:26:54.413Z,100666.66
2023-08-06T18:29:21.034Z,100668.53
2023-08-06T18:31:47.429Z,100672.53
2023-08-06T18:34:13.979Z,100673.72
2023-08-06T18:36:40.432Z,100673.41
2023-08-06T18:39:06.881Z,100675.09
2023-08-06T18:41:34.236Z,100676.84
2023-08-06T18:44:00.650Z,100680.69
2023-08-06T18:46:27.130Z,100696.69
2023-08-06T18:48:53.552Z,100694.06
2023-08-06T18:51:20.968Z,100688.53
2023-08-06T18:53:47.416Z,100692.75
2023-08-06T18:56:13.787Z,100698.78
2023-08-06T18:58:40.286Z,100699.78
2023-08-06T19:01:06.704Z,100710.38
2023-08-06T19:03:33.173Z,100703.31
2023-08-06T19:06:02.829Z,100709.38
2023-08-06T19:08:29.229Z,100715.41
2023-08-06T19:10:55.669Z,100718.28
2023-08-06T19:13:22.129Z,100719.28
2023-08-06T19:15:49.864Z,100721.13
2023-08-06T19:18:16.431Z,100721.81
2023-08-06T19:20:46.103Z,100728.03
2023-08-06T19:23:20.574Z,100735.41
2023-08-06T19:25:48.561Z,100734.56
2023-08-06T19:28:17.193Z,100735.78
2023-08-06T19:30:44.357Z,100733.41
2023-08-06T19:33:14.279Z,100738.25
2023-08-06T19:35:53.968Z,100736.25
2023-08-06T19:38:22.162Z,100740.31
2023-08-06T19:40:48.591Z,100748.84
2023-08-06T19:43:15.038Z,100737.94
2023-08-06T19:45:47.062Z,100741.97
2023-08-06T19:48:13.483Z,100740.63
2023-08-06T19:50:40.508Z,100752.22
2023-08-06T19:53:06.881Z,100754.75
2023-08-06T19:55:33.273Z,100766.16
2023-08-06T19:57:59.633Z,100755.59
2023-08-06T20:00:26.093Z,100754.59
2023-08-06T20:02:52.526Z,100764.84
2023-08-06T20:05:19.129Z,100770.03
2023-08-06T20:07:45.498Z,100767.34
2023-08-06T20:10:11.930Z,100770.41
2023-08-06T20:12:38.327Z,100767.38
2023-08-06T20:15:04.926Z,100763.19
2023-08-06T20:17:31.960Z,100762.50
2023-08-06T20:19:58.496Z,100764.19
2023-08-06T20:22:25.030Z,100763.72
2023-08-06T20:24:51.400Z,100763.88
2023-08-06T20:27:17.869Z,100760.00
2023-08-06T20:29:44.232Z,100762.53
2023-08-06T20:32:10.626Z,100767.41
2023-08-06T20:34:37.064Z,100765.06
2023-08-06T20:37:03.654Z,100765.88
2023-08-06T20:39:30.024Z,100766.91
2023-08-06T20:41:56.709Z,100767.41
2023-08-06T20:44:24.145Z,100766.22
2023-08-06T20:46:52.570Z,100766.72
2023-08-06T20:49:19.025Z,100765.72
2023-08-06T20:51:45.410Z,100766.22
2023-08-06T20:54:11.852Z,100772.28
2023-08-06T20:56:38.239Z,100772.28
2023-08-06T20:59:04.672Z,100769.41
2023-08-06T21:01:31.047Z,100772.78
2023-08-06T21:03:57.416Z,100767.41
2023-08-06T21:06:23.795Z,100775.13
2023-08-06T21:08:50.190Z,100774.13
2023-08-06T21:11:17.099Z,100773.78
2023-08-06T21:13:46.625Z,100778.47
2023-08-06T21:16:13.184Z,100776.97
2023-08-06T21:18:40.491Z,100776.50
2023-08-06T21:21:07.296Z,100772.63
2023-08-06T21:23:33.814Z,100777.50
2023-08-06T21:26:04.992Z,100778.84
2023-08-06T21:28:33.242Z,100784.22
2023-08-06T21:31:05.195Z,100785.06
2023-08-06T21:33:33.434Z,100784.06
2023-08-06T21:36:02.935Z,100788.88
2023-08-06T21:38:30.395Z,100794.09
2023-08-06T21:41:08.016Z,100788.88
2023-08-06T21:43:39.789Z,100793.41
2023-08-06T21:46:10.967Z,100796.09
2023-08-06T21:48:38.885Z,100791.22
2023-08-06T21:51:07.769Z,100802.50
2023-08-06T21:53:35.814Z,100794.59
2023-08-06T21:56:06.159Z,100793.75
2023-08-06T21:58:44.579Z,100796.44
2023-08-06T22:01:12.479Z,100799.13
2023-08-06T22:03:40.982Z,100794.75
2023-08-06T22:06:09.071Z,100787.00
2023-08-06T22:08:35.974Z,100790.03
2023-08-06T22:11:03.723Z,100790.88
2023-08-06T22:13:30.506Z,100795.06
2023-08-06T22:15:57.231Z,100792.03
2023-08-06T22:18:24.086Z,100790.88
2023-08-06T22:20:51.070Z,100792.72
2023-08-06T22:23:17.539Z,100790.34
2023-08-06T22:25:43.931Z,100791.53
2023-08-06T22:28:10.325Z,100786.50
2023-08-06T22:30:36.915Z,100777.44
2023-08-06T22:33:03.497Z,100779.09
2023-08-06T22:35:29.995Z,100778.81
2023-08-06T22:37:56.469Z,100786.00
2023-08-06T22:40:22.865Z,100778.09
2023-08-06T22:42:49.238Z,100778.25
2023-08-06T22:45:15.672Z,100777.59
2023-08-06T22:47:43.133Z,100783.47
2023-08-06T22:50:11.665Z,100779.59
2023-08-06T22:52:38.943Z,100782.47
2023-08-06T22:55:17.672Z,100773.56
2023-08-06T22:57:52.408Z,100770.41
2023-08-06T23:00:18.806Z,100770.75
2023-08-06T23:02:54.924Z,100773.56
2023-08-06T23:05:25.803Z,100767.22
2023-08-06T23:07:52.317Z,100758.63
2023-08-06T23:10:18.757Z,100767.03
2023-08-06T23:12:45.319Z,100763.19
2023-08-06T23:15:11.750Z,100769.91
2023-08-06T23:17:39.796Z,100768.84
2023-08-06T23:20:09.088Z,100758.47
2023-08-06T23:22:35.519Z,100762.00
2023-08-06T23:25:01.941Z,100767.03
2023-08-06T23:27:28.728Z,100768.56
2023-08-06T23:29:55.093Z,100754.44
2023-08-06T23:32:22.325Z,100756.13
2023-08-06T23:34:53.785Z,100758.31
2023-08-06T23:37:20.894Z,100756.78
2023-08-06T23:39:47.477Z,100755.63
2023-08-06T23:42:13.847Z,100756.63
2023-08-06T23:44:40.215Z,100756.47
2023-08-06T23:47:06.665Z,100753.25
2023-08-06T23:49:33.140Z,100755.78
2023-08-06T23:51:59.504Z,100755.78
2023-08-06T23:54:25.899Z,100746.75
2023-08-06T23:56:52.282Z,100758.31
2023-08-06T23:59:18.708Z,100749.59
